sensor_id;sensor_type;location;lat;lon;timestamp;temperature;humidity
5647;DHT22;2845;48.626;9.362;2023-12-20T00:01:17;5.20;98.60
5647;DHT22;2845;48.626;9.362;2023-12-20T00:03:51;5.20;98.60
5647;DHT22;2845;48.626;9.362;2023-12-20T00:06:25;5.20;98.50
5647;DHT22;2845;48.626;9.362;2023-12-20T00:08:59;5.20;98.50
5647;DHT22;2845;48.626;9.362;2023-12-20T00:11:35;5.30;98.70
5647;DHT22;2845;48.626;9.362;2023-12-20T00:14:09;5.30;98.50
5647;DHT22;2845;48.626;9.362;2023-12-20T00:16:43;5.30;98.60
5647;DHT22;2845;48.626;9.362;2023-12-20T00:19:17;5.40;98.70
5647;DHT22;2845;48.626;9.362;2023-12-20T00:21:51;5.40;98.70
5647;DHT22;2845;48.626;9.362;2023-12-20T00:24:25;8.30;99.20
5647;DHT22;2845;48.626;9.362;2023-12-20T00:27:01;5.40;98.60
5647;DHT22;2845;48.626;9.362;2023-12-20T00:29:35;5.30;98.60
5647;DHT22;2845;48.626;9.362;2023-12-20T00:32:09;8.50;99.30
5647;DHT22;2845;48.626;9.362;2023-12-20T00:34:43;5.30;98.60
5647;DHT22;2845;48.626;9.362;2023-12-20T00:37:18;5.40;98.60
5647;DHT22;2845;48.626;9.362;2023-12-20T00:39:52;5.40;98.60
5647;DHT22;2845;48.626;9.362;2023-12-20T00:42:27;5.40;98.60
5647;DHT22;2845;48.626;9.362;2023-12-20T00:45:02;5.40;98.70
5647;DHT22;2845;48.626;9.362;2023-12-20T00:47:37;5.40;98.70
5647;DHT22;2845;48.626;9.362;2023-12-20T00:50:11;5.40;98.70
5647;DHT22;2845;48.626;9.362;2023-12-20T00:52:46;5.50;98.70
5647;DHT22;2845;48.626;9.362;2023-12-20T00:55:20;5.50;98.80
5647;DHT22;2845;48.626;9.362;2023-12-20T00:57:55;5.40;98.80
5647;DHT22;2845;48.626;9.362;2023-12-20T01:00:29;5.50;98.90
5647;DHT22;2845;48.626;9.362;2023-12-20T01:03:04;5.50;98.90
5647;DHT22;2845;48.626;9.362;2023-12-20T01:05:38;5.50;98.90
5647;DHT22;2845;48.626;9.362;2023-12-20T01:08:12;5.50;98.90
5647;DHT22;2845;48.626;9.362;2023-12-20T01:10:46;5.50;98.90
5647;DHT22;2845;48.626;9.362;2023-12-20T01:13:21;7.70;99.30
5647;DHT22;2845;48.626;9.362;2023-12-20T01:15:56;5.50;98.80
5647;DHT22;2845;48.626;9.362;2023-12-20T01:18:30;5.50;98.70
5647;DHT22;2845;48.626;9.362;2023-12-20T01:21:04;5.50;98.90
5647;DHT22;2845;48.626;9.362;2023-12-20T01:23:38;5.60;98.90
5647;DHT22;2845;48.626;9.362;2023-12-20T01:26:12;5.60;99.00
5647;DHT22;2845;48.626;9.362;2023-12-20T01:28:48;5.60;99.10
5647;DHT22;2845;48.626;9.362;2023-12-20T01:31:22;5.50;99.10
5647;DHT22;2845;48.626;9.362;2023-12-20T01:33:56;5.60;99.10
5647;DHT22;2845;48.626;9.362;2023-12-20T01:36:30;5.60;99.40
5647;DHT22;2845;48.626;9.362;2023-12-20T01:39:04;5.50;99.40
5647;DHT22;2845;48.626;9.362;2023-12-20T01:41:56;5.50;99.40
5647;DHT22;2845;48.626;9.362;2023-12-20T01:44:32;5.50;99.60
5647;DHT22;2845;48.626;9.362;2023-12-20T01:47:06;5.50;99.70
5647;DHT22;2845;48.626;9.362;2023-12-20T01:49:40;6.70;99.90
5647;DHT22;2845;48.626;9.362;2023-12-20T01:52:14;5.40;99.90
5647;DHT22;2845;48.626;9.362;2023-12-20T01:54:49;5.40;99.90
5647;DHT22;2845;48.626;9.362;2023-12-20T01:57:23;5.40;99.90
5647;DHT22;2845;48.626;9.362;2023-12-20T01:59:58;5.40;99.90
5647;DHT22;2845;48.626;9.362;2023-12-20T02:02:33;5.40;99.90
5647;DHT22;2845;48.626;9.362;2023-12-20T02:05:08;5.40;99.90
5647;DHT22;2845;48.626;9.362;2023-12-20T02:07:43;5.40;99.90
5647;DHT22;2845;48.626;9.362;2023-12-20T02:10:17;5.40;99.90
5647;DHT22;2845;48.626;9.362;2023-12-20T02:12:52;5.40;99.90
5647;DHT22;2845;48.626;9.362;2023-12-20T02:15:27;5.40;99.90
5647;DHT22;2845;48.626;9.362;2023-12-20T02:18:01;5.40;99.90
5647;DHT22;2845;48.626;9.362;2023-12-20T02:20:35;5.30;99.90
5647;DHT22;2845;48.626;9.362;2023-12-20T02:23:11;5.30;99.90
5647;DHT22;2845;48.626;9.362;2023-12-20T02:25:45;5.30;99.90
5647;DHT22;2845;48.626;9.362;2023-12-20T02:28:19;5.30;99.90
5647;DHT22;2845;48.626;9.362;2023-12-20T02:30:54;5.30;99.90
5647;DHT22;2845;48.626;9.362;2023-12-20T02:33:28;5.30;99.90
5647;DHT22;2845;48.626;9.362;2023-12-20T02:36:03;5.20;99.90
5647;DHT22;2845;48.626;9.362;2023-12-20T02:38:39;5.30;99.90
5647;DHT22;2845;48.626;9.362;2023-12-20T02:41:13;5.20;99.90
5647;DHT22;2845;48.626;9.362;2023-12-20T02:43:49;5.20;99.90
5647;DHT22;2845;48.626;9.362;2023-12-20T02:46:23;5.20;99.90
5647;DHT22;2845;48.626;9.362;2023-12-20T02:48:57;5.20;99.90
5647;DHT22;2845;48.626;9.362;2023-12-20T02:51:31;5.20;99.90
5647;DHT22;2845;48.626;9.362;2023-12-20T02:54:07;5.20;99.90
5647;DHT22;2845;48.626;9.362;2023-12-20T02:56:41;5.20;99.90
5647;DHT22;2845;48.626;9.362;2023-12-20T02:59:15;5.20;99.90
5647;DHT22;2845;48.626;9.362;2023-12-20T03:01:49;5.20;99.90
5647;DHT22;2845;48.626;9.362;2023-12-20T03:04:23;5.20;99.90
5647;DHT22;2845;48.626;9.362;2023-12-20T03:06:58;5.20;99.90
5647;DHT22;2845;48.626;9.362;2023-12-20T03:09:33;5.20;99.90
5647;DHT22;2845;48.626;9.362;2023-12-20T03:12:27;5.20;99.90
5647;DHT22;2845;48.626;9.362;2023-12-20T03:15:01;5.20;99.90
5647;DHT22;2845;48.626;9.362;2023-12-20T03:17:35;5.20;99.90
5647;DHT22;2845;48.626;9.362;2023-12-20T03:20:10;5.20;99.90
5647;DHT22;2845;48.626;9.362;2023-12-20T03:22:44;7.10;99.90
5647;DHT22;2845;48.626;9.362;2023-12-20T03:25:19;5.20;99.90
5647;DHT22;2845;48.626;9.362;2023-12-20T03:27:54;5.20;99.90
5647;DHT22;2845;48.626;9.362;2023-12-20T03:30:28;5.20;99.90
5647;DHT22;2845;48.626;9.362;2023-12-20T03:33:02;5.60;99.90
5647;DHT22;2845;48.626;9.362;2023-12-20T03:35:36;5.20;99.90
5647;DHT22;2845;48.626;9.362;2023-12-20T03:38:10;5.20;99.90
5647;DHT22;2845;48.626;9.362;2023-12-20T03:40:46;5.30;99.90
5647;DHT22;2845;48.626;9.362;2023-12-20T03:43:20;5.30;99.90
5647;DHT22;2845;48.626;9.362;2023-12-20T03:45:54;5.30;99.90
5647;DHT22;2845;48.626;9.362;2023-12-20T03:48:28;5.20;99.90
5647;DHT22;2845;48.626;9.362;2023-12-20T03:51:03;5.20;99.90
5647;DHT22;2845;48.626;9.362;2023-12-20T03:53:37;6.40;99.90
5647;DHT22;2845;48.626;9.362;2023-12-20T03:56:14;5.20;99.90
5647;DHT22;2845;48.626;9.362;2023-12-20T03:58:48;5.20;99.90
5647;DHT22;2845;48.626;9.362;2023-12-20T04:01:22;6.90;99.90
5647;DHT22;2845;48.626;9.362;2023-12-20T04:03:57;5.30;99.90
5647;DHT22;2845;48.626;9.362;2023-12-20T04:06:31;5.30;99.90
5647;DHT22;2845;48.626;9.362;2023-12-20T04:09:05;5.30;99.90
5647;DHT22;2845;48.626;9.362;2023-12-20T04:11:43;5.30;99.90
5647;DHT22;2845;48.626;9.362;2023-12-20T04:14:17;5.40;99.90
5647;DHT22;2845;48.626;9.362;2023-12-20T04:16:51;5.40;99.90
5647;DHT22;2845;48.626;9.362;2023-12-20T04:19:25;5.40;99.90
5647;DHT22;2845;48.626;9.362;2023-12-20T04:22:00;5.40;99.90
5647;DHT22;2845;48.626;9.362;2023-12-20T04:24:34;5.40;99.90
5647;DHT22;2845;48.626;9.362;2023-12-20T04:27:09;5.40;99.90
5647;DHT22;2845;48.626;9.362;2023-12-20T04:29:43;5.40;99.90
5647;DHT22;2845;48.626;9.362;2023-12-20T04:32:18;5.40;99.90
5647;DHT22;2845;48.626;9.362;2023-12-20T04:34:52;5.40;99.90
5647;DHT22;2845;48.626;9.362;2023-12-20T04:37:26;5.40;99.90
5647;DHT22;2845;48.626;9.362;2023-12-20T04:40:00;5.40;99.90
5647;DHT22;2845;48.626;9.362;2023-12-20T04:42:36;5.40;99.90
5647;DHT22;2845;48.626;9.362;2023-12-20T04:45:10;5.40;99.90
5647;DHT22;2845;48.626;9.362;2023-12-20T04:47:45;5.40;99.90
5647;DHT22;2845;48.626;9.362;2023-12-20T04:50:20;5.40;99.90
5647;DHT22;2845;48.626;9.362;2023-12-20T04:52:55;5.40;99.90
5647;DHT22;2845;48.626;9.362;2023-12-20T04:55:29;5.40;99.90
5647;DHT22;2845;48.626;9.362;2023-12-20T04:58:05;5.40;99.90
5647;DHT22;2845;48.626;9.362;2023-12-20T05:00:39;5.30;99.90
5647;DHT22;2845;48.626;9.362;2023-12-20T05:03:13;5.40;99.90
5647;DHT22;2845;48.626;9.362;2023-12-20T05:05:47;5.40;99.90
5647;DHT22;2845;48.626;9.362;2023-12-20T05:08:21;5.30;99.90
5647;DHT22;2845;48.626;9.362;2023-12-20T05:10:55;5.40;99.90
5647;DHT22;2845;48.626;9.362;2023-12-20T05:13:31;5.40;99.90
5647;DHT22;2845;48.626;9.362;2023-12-20T05:16:16;5.40;99.90
5647;DHT22;2845;48.626;9.362;2023-12-20T05:18:52;5.40;99.90
5647;DHT22;2845;48.626;9.362;2023-12-20T05:21:26;5.30;99.90
5647;DHT22;2845;48.626;9.362;2023-12-20T05:24:00;5.40;99.90
5647;DHT22;2845;48.626;9.362;2023-12-20T05:26:34;5.40;99.90
5647;DHT22;2845;48.626;9.362;2023-12-20T05:29:10;5.40;99.90
5647;DHT22;2845;48.626;9.362;2023-12-20T05:31:44;7.00;99.90
5647;DHT22;2845;48.626;9.362;2023-12-20T05:34:18;5.30;99.90
5647;DHT22;2845;48.626;9.362;2023-12-20T05:36:53;5.30;99.90
5647;DHT22;2845;48.626;9.362;2023-12-20T05:39:27;5.30;99.90
5647;DHT22;2845;48.626;9.362;2023-12-20T05:42:01;5.30;99.90
5647;DHT22;2845;48.626;9.362;2023-12-20T05:44:36;5.30;99.90
5647;DHT22;2845;48.626;9.362;2023-12-20T05:47:10;5.30;99.90
5647;DHT22;2845;48.626;9.362;2023-12-20T05:49:45;5.30;99.90
5647;DHT22;2845;48.626;9.362;2023-12-20T05:52:19;5.30;99.90
5647;DHT22;2845;48.626;9.362;2023-12-20T05:54:53;5.30;99.90
5647;DHT22;2845;48.626;9.362;2023-12-20T05:57:28;5.30;99.90
5647;DHT22;2845;48.626;9.362;2023-12-20T06:02:40;5.40;99.90
5647;DHT22;2845;48.626;9.362;2023-12-20T06:05:14;5.40;99.90
5647;DHT22;2845;48.626;9.362;2023-12-20T06:07:48;5.40;99.90
5647;DHT22;2845;48.626;9.362;2023-12-20T06:10:23;5.30;99.90
5647;DHT22;2845;48.626;9.362;2023-12-20T06:12:58;5.30;99.90
5647;DHT22;2845;48.626;9.362;2023-12-20T06:15:35;5.30;99.90
5647;DHT22;2845;48.626;9.362;2023-12-20T06:18:09;5.40;99.90
5647;DHT22;2845;48.626;9.362;2023-12-20T06:20:43;5.30;99.90
5647;DHT22;2845;48.626;9.362;2023-12-20T06:23:17;5.30;99.90
5647;DHT22;2845;48.626;9.362;2023-12-20T06:25:51;5.40;99.90
5647;DHT22;2845;48.626;9.362;2023-12-20T06:28:25;5.40;99.90
5647;DHT22;2845;48.626;9.362;2023-12-20T06:31:01;5.40;99.90
5647;DHT22;2845;48.626;9.362;2023-12-20T06:33:36;5.40;99.90
5647;DHT22;2845;48.626;9.362;2023-12-20T06:36:11;5.40;99.90
5647;DHT22;2845;48.626;9.362;2023-12-20T06:38:45;5.30;99.90
5647;DHT22;2845;48.626;9.362;2023-12-20T06:41:20;5.40;99.90
5647;DHT22;2845;48.626;9.362;2023-12-20T06:43:54;5.40;99.90
5647;DHT22;2845;48.626;9.362;2023-12-20T06:49:04;5.30;99.90
5647;DHT22;2845;48.626;9.362;2023-12-20T06:51:38;5.30;99.90
5647;DHT22;2845;48.626;9.362;2023-12-20T06:54:12;5.30;99.90
5647;DHT22;2845;48.626;9.362;2023-12-20T06:56:46;5.30;99.90
5647;DHT22;2845;48.626;9.362;2023-12-20T06:59:20;5.30;99.90
5647;DHT22;2845;48.626;9.362;2023-12-20T07:01:56;5.30;99.90
5647;DHT22;2845;48.626;9.362;2023-12-20T07:04:30;5.30;99.90
5647;DHT22;2845;48.626;9.362;2023-12-20T07:07:04;5.30;99.90
5647;DHT22;2845;48.626;9.362;2023-12-20T07:09:39;5.30;99.90
5647;DHT22;2845;48.626;9.362;2023-12-20T07:12:15;5.30;99.90
5647;DHT22;2845;48.626;9.362;2023-12-20T07:14:51;5.30;99.90
5647;DHT22;2845;48.626;9.362;2023-12-20T07:17:26;5.30;99.90
5647;DHT22;2845;48.626;9.362;2023-12-20T07:20:01;5.30;99.90
5647;DHT22;2845;48.626;9.362;2023-12-20T07:22:37;5.30;99.90
5647;DHT22;2845;48.626;9.362;2023-12-20T07:25:12;5.30;99.90
5647;DHT22;2845;48.626;9.362;2023-12-20T07:27:46;5.30;99.90
5647;DHT22;2845;48.626;9.362;2023-12-20T07:30:21;5.30;99.90
5647;DHT22;2845;48.626;9.362;2023-12-20T07:32:56;5.30;99.90
5647;DHT22;2845;48.626;9.362;2023-12-20T07:35:30;5.30;99.90
5647;DHT22;2845;48.626;9.362;2023-12-20T07:38:05;5.30;99.90
5647;DHT22;2845;48.626;9.362;2023-12-20T07:40:39;5.30;99.90
5647;DHT22;2845;48.626;9.362;2023-12-20T07:43:13;5.30;99.90
5647;DHT22;2845;48.626;9.362;2023-12-20T07:45:47;5.30;99.90
5647;DHT22;2845;48.626;9.362;2023-12-20T07:48:23;5.30;99.90
5647;DHT22;2845;48.626;9.362;2023-12-20T07:50:57;5.40;99.90
5647;DHT22;2845;48.626;9.362;2023-12-20T07:53:31;5.30;99.90
5647;DHT22;2845;48.626;9.362;2023-12-20T07:56:14;5.40;99.90
5647;DHT22;2845;48.626;9.362;2023-12-20T07:58:48;5.40;99.90
5647;DHT22;2845;48.626;9.362;2023-12-20T08:01:25;5.40;99.90
5647;DHT22;2845;48.626;9.362;2023-12-20T08:04:01;5.40;99.90
5647;DHT22;2845;48.626;9.362;2023-12-20T08:06:35;5.40;99.90
5647;DHT22;2845;48.626;9.362;2023-12-20T08:09:09;5.40;99.90
5647;DHT22;2845;48.626;9.362;2023-12-20T08:11:45;5.40;99.90
5647;DHT22;2845;48.626;9.362;2023-12-20T08:14:19;5.40;99.90
5647;DHT22;2845;48.626;9.362;2023-12-20T08:16:53;5.40;99.90
5647;DHT22;2845;48.626;9.362;2023-12-20T08:19:28;5.40;99.90
5647;DHT22;2845;48.626;9.362;2023-12-20T08:22:03;5.50;99.90
5647;DHT22;2845;48.626;9.362;2023-12-20T08:24:37;4.50;99.90
5647;DHT22;2845;48.626;9.362;2023-12-20T08:27:11;5.50;99.90
5647;DHT22;2845;48.626;9.362;2023-12-20T08:29:45;5.50;99.90
5647;DHT22;2845;48.626;9.362;2023-12-20T08:32:20;5.50;99.90
5647;DHT22;2845;48.626;9.362;2023-12-20T08:34:55;5.50;99.90
5647;DHT22;2845;48.626;9.362;2023-12-20T08:37:29;5.50;99.90
5647;DHT22;2845;48.626;9.362;2023-12-20T08:40:04;5.50;99.90
5647;DHT22;2845;48.626;9.362;2023-12-20T08:42:39;5.50;99.90
5647;DHT22;2845;48.626;9.362;2023-12-20T08:45:14;5.60;99.90
5647;DHT22;2845;48.626;9.362;2023-12-20T08:47:48;5.60;99.90
5647;DHT22;2845;48.626;9.362;2023-12-20T08:50:24;7.30;99.90
5647;DHT22;2845;48.626;9.362;2023-12-20T08:52:58;5.60;99.90
5647;DHT22;2845;48.626;9.362;2023-12-20T08:55:32;5.60;99.90
5647;DHT22;2845;48.626;9.362;2023-12-20T08:58:07;5.60;99.90
5647;DHT22;2845;48.626;9.362;2023-12-20T09:00:41;3.60;99.90
5647;DHT22;2845;48.626;9.362;2023-12-20T09:03:15;5.60;99.90
5647;DHT22;2845;48.626;9.362;2023-12-20T09:05:51;5.70;99.90
5647;DHT22;2845;48.626;9.362;2023-12-20T09:08:25;5.70;99.90
5647;DHT22;2845;48.626;9.362;2023-12-20T09:10:59;5.70;99.90
5647;DHT22;2845;48.626;9.362;2023-12-20T09:13:33;5.70;99.90
5647;DHT22;2845;48.626;9.362;2023-12-20T09:16:08;5.70;99.90
5647;DHT22;2845;48.626;9.362;2023-12-20T09:18:42;5.60;99.90
5647;DHT22;2845;48.626;9.362;2023-12-20T09:21:18;5.60;99.90
5647;DHT22;2845;48.626;9.362;2023-12-20T09:23:52;5.50;99.90
5647;DHT22;2845;48.626;9.362;2023-12-20T09:26:26;5.50;99.90
5647;DHT22;2845;48.626;9.362;2023-12-20T09:29:00;5.50;99.90
5647;DHT22;2845;48.626;9.362;2023-12-20T09:31:36;5.60;99.90
5647;DHT22;2845;48.626;9.362;2023-12-20T09:34:10;5.70;99.90
5647;DHT22;2845;48.626;9.362;2023-12-20T09:36:46;5.90;99.90
5647;DHT22;2845;48.626;9.362;2023-12-20T09:39:21;5.90;99.90
5647;DHT22;2845;48.626;9.362;2023-12-20T09:42:01;6.00;99.90
5647;DHT22;2845;48.626;9.362;2023-12-20T09:44:36;6.00;99.90
5647;DHT22;2845;48.626;9.362;2023-12-20T09:47:14;8.70;99.90
5647;DHT22;2845;48.626;9.362;2023-12-20T09:49:50;5.90;99.90
5647;DHT22;2845;48.626;9.362;2023-12-20T09:52:26;7.70;99.90
5647;DHT22;2845;48.626;9.362;2023-12-20T09:55:01;5.80;99.90
5647;DHT22;2845;48.626;9.362;2023-12-20T09:57:39;5.80;99.90
5647;DHT22;2845;48.626;9.362;2023-12-20T10:00:14;5.80;99.90
5647;DHT22;2845;48.626;9.362;2023-12-20T10:02:53;5.80;99.90
5647;DHT22;2845;48.626;9.362;2023-12-20T10:05:31;5.70;99.90
5647;DHT22;2845;48.626;9.362;2023-12-20T10:08:09;5.70;99.90
5647;DHT22;2845;48.626;9.362;2023-12-20T10:10:43;5.70;99.90
5647;DHT22;2845;48.626;9.362;2023-12-20T10:13:23;5.60;99.90
5647;DHT22;2845;48.626;9.362;2023-12-20T10:15:57;5.30;99.90
5647;DHT22;2845;48.626;9.362;2023-12-20T10:18:34;9.60;99.90
5647;DHT22;2845;48.626;9.362;2023-12-20T10:21:11;9.40;99.90
5647;DHT22;2845;48.626;9.362;2023-12-20T10:23:48;7.90;99.90
5647;DHT22;2845;48.626;9.362;2023-12-20T10:26:24;5.60;99.90
5647;DHT22;2845;48.626;9.362;2023-12-20T10:29:01;5.60;99.90
5647;DHT22;2845;48.626;9.362;2023-12-20T10:31:37;9.20;99.90
5647;DHT22;2845;48.626;9.362;2023-12-20T10:34:12;7.90;99.90
5647;DHT22;2845;48.626;9.362;2023-12-20T10:36:47;10.30;99.90
5647;DHT22;2845;48.626;9.362;2023-12-20T10:39:23;5.70;99.90
5647;DHT22;2845;48.626;9.362;2023-12-20T10:41:57;5.60;99.90
5647;DHT22;2845;48.626;9.362;2023-12-20T10:44:31;5.60;99.90
5647;DHT22;2845;48.626;9.362;2023-12-20T10:47:08;5.60;99.90
5647;DHT22;2845;48.626;9.362;2023-12-20T10:52:18;5.60;99.90
5647;DHT22;2845;48.626;9.362;2023-12-20T10:54:55;6.10;99.90
5647;DHT22;2845;48.626;9.362;2023-12-20T10:57:30;5.60;99.90
5647;DHT22;2845;48.626;9.362;2023-12-20T11:00:06;5.60;99.90
5647;DHT22;2845;48.626;9.362;2023-12-20T11:02:43;5.70;99.90
5647;DHT22;2845;48.626;9.362;2023-12-20T11:05:25;5.80;99.90
5647;DHT22;2845;48.626;9.362;2023-12-20T11:08:10;5.90;99.90
5647;DHT22;2845;48.626;9.362;2023-12-20T11:10:55;5.90;99.40
5647;DHT22;2845;48.626;9.362;2023-12-20T11:13:34;5.90;99.60
5647;DHT22;2845;48.626;9.362;2023-12-20T11:16:10;6.00;99.30
5647;DHT22;2845;48.626;9.362;2023-12-20T11:18:45;6.00;99.20
5647;DHT22;2845;48.626;9.362;2023-12-20T11:21:19;6.00;99.20
5647;DHT22;2845;48.626;9.362;2023-12-20T11:23:54;6.00;98.80
5647;DHT22;2845;48.626;9.362;2023-12-20T11:29:30;5.90;97.90
5647;DHT22;2845;48.626;9.362;2023-12-20T11:32:29;6.00;98.20
5647;DHT22;2845;48.626;9.362;2023-12-20T11:35:17;6.00;98.20
5647;DHT22;2845;48.626;9.362;2023-12-20T11:37:53;6.00;97.80
5647;DHT22;2845;48.626;9.362;2023-12-20T11:40:27;6.10;98.00
5647;DHT22;2845;48.626;9.362;2023-12-20T11:43:03;6.20;97.50
5647;DHT22;2845;48.626;9.362;2023-12-20T11:45:49;6.10;97.50
5647;DHT22;2845;48.626;9.362;2023-12-20T11:48:24;6.20;97.70
5647;DHT22;2845;48.626;9.362;2023-12-20T11:50:58;6.30;97.50
5647;DHT22;2845;48.626;9.362;2023-12-20T11:53:33;6.40;97.60
5647;DHT22;2845;48.626;9.362;2023-12-20T11:56:07;6.00;97.20
5647;DHT22;2845;48.626;9.362;2023-12-20T11:58:43;6.60;97.30
5647;DHT22;2845;48.626;9.362;2023-12-20T12:01:20;6.70;97.10
5647;DHT22;2845;48.626;9.362;2023-12-20T12:04:02;6.80;96.60
5647;DHT22;2845;48.626;9.362;2023-12-20T12:06:39;6.90;96.40
5647;DHT22;2845;48.626;9.362;2023-12-20T12:09:13;6.90;96.40
5647;DHT22;2845;48.626;9.362;2023-12-20T12:11:48;6.80;96.20
5647;DHT22;2845;48.626;9.362;2023-12-20T12:16:59;9.00;96.90
5647;DHT22;2845;48.626;9.362;2023-12-20T12:19:33;10.10;97.80
5647;DHT22;2845;48.626;9.362;2023-12-20T12:22:11;6.60;96.50
5647;DHT22;2845;48.626;9.362;2023-12-20T12:24:48;6.60;96.60
5647;DHT22;2845;48.626;9.362;2023-12-20T12:27:22;6.50;96.60
5647;DHT22;2845;48.626;9.362;2023-12-20T12:30:02;7.40;96.40
5647;DHT22;2845;48.626;9.362;2023-12-20T12:32:40;6.60;96.20
5647;DHT22;2845;48.626;9.362;2023-12-20T12:35:15;8.60;96.60
5647;DHT22;2845;48.626;9.362;2023-12-20T12:37:49;6.50;96.20
5647;DHT22;2845;48.626;9.362;2023-12-20T12:40:23;6.40;96.30
5647;DHT22;2845;48.626;9.362;2023-12-20T12:42:58;6.40;96.40
5647;DHT22;2845;48.626;9.362;2023-12-20T12:48:08;6.60;96.10
5647;DHT22;2845;48.626;9.362;2023-12-20T12:50:43;9.60;97.00
5647;DHT22;2845;48.626;9.362;2023-12-20T12:53:17;8.20;96.70
5647;DHT22;2845;48.626;9.362;2023-12-20T12:55:51;6.60;96.40
5647;DHT22;2845;48.626;9.362;2023-12-20T12:58:25;6.50;96.40
5647;DHT22;2845;48.626;9.362;2023-12-20T13:03:36;6.40;96.70
5647;DHT22;2845;48.626;9.362;2023-12-20T13:06:11;6.30;96.70
5647;DHT22;2845;48.626;9.362;2023-12-20T13:08:45;6.30;96.90
5647;DHT22;2845;48.626;9.362;2023-12-20T13:11:19;6.20;97.00
5647;DHT22;2845;48.626;9.362;2023-12-20T13:13:53;6.30;97.20
5647;DHT22;2845;48.626;9.362;2023-12-20T13:21:39;6.30;97.10
5647;DHT22;2845;48.626;9.362;2023-12-20T13:24:13;5.30;96.80
5647;DHT22;2845;48.626;9.362;2023-12-20T13:26:47;8.60;97.40
5647;DHT22;2845;48.626;9.362;2023-12-20T13:29:22;6.30;96.90
5647;DHT22;2845;48.626;9.362;2023-12-20T13:34:32;6.30;96.70
5647;DHT22;2845;48.626;9.362;2023-12-20T13:37:06;6.40;96.70
5647;DHT22;2845;48.626;9.362;2023-12-20T13:39:40;6.40;96.80
5647;DHT22;2845;48.626;9.362;2023-12-20T13:42:15;8.00;97.20
5647;DHT22;2845;48.626;9.362;2023-12-20T13:44:49;6.40;96.80
5647;DHT22;2845;48.626;9.362;2023-12-20T13:47:24;6.40;96.60
5647;DHT22;2845;48.626;9.362;2023-12-20T13:49:58;6.60;96.70
5647;DHT22;2845;48.626;9.362;2023-12-20T13:52:33;6.30;96.70
5647;DHT22;2845;48.626;9.362;2023-12-20T13:55:11;6.20;96.60
5647;DHT22;2845;48.626;9.362;2023-12-20T13:57:45;6.30;96.70
5647;DHT22;2845;48.626;9.362;2023-12-20T14:00:27;6.30;96.60
5647;DHT22;2845;48.626;9.362;2023-12-20T14:03:03;6.20;96.60
5647;DHT22;2845;48.626;9.362;2023-12-20T14:05:38;6.20;96.50
5647;DHT22;2845;48.626;9.362;2023-12-20T14:08:12;6.10;96.70
5647;DHT22;2845;48.626;9.362;2023-12-20T14:10:47;6.10;96.80
5647;DHT22;2845;48.626;9.362;2023-12-20T14:13:21;6.80;97.10
5647;DHT22;2845;48.626;9.362;2023-12-20T14:18:33;6.00;96.90
5647;DHT22;2845;48.626;9.362;2023-12-20T14:21:07;6.00;96.90
5647;DHT22;2845;48.626;9.362;2023-12-20T14:23:41;6.00;97.10
5647;DHT22;2845;48.626;9.362;2023-12-20T14:26:18;6.00;97.00
5647;DHT22;2845;48.626;9.362;2023-12-20T14:28:53;6.00;96.90
5647;DHT22;2845;48.626;9.362;2023-12-20T14:31:27;8.10;97.70
5647;DHT22;2845;48.626;9.362;2023-12-20T14:36:37;6.00;96.90
5647;DHT22;2845;48.626;9.362;2023-12-20T14:39:11;5.90;96.90
5647;DHT22;2845;48.626;9.362;2023-12-20T14:41:46;8.40;97.80
5647;DHT22;2845;48.626;9.362;2023-12-20T14:44:20;5.90;97.30
5647;DHT22;2845;48.626;9.362;2023-12-20T14:46:54;8.60;98.00
5647;DHT22;2845;48.626;9.362;2023-12-20T14:49:30;5.90;97.30
5647;DHT22;2845;48.626;9.362;2023-12-20T14:52:04;5.90;97.40
5647;DHT22;2845;48.626;9.362;2023-12-20T14:54:39;6.00;97.30
5647;DHT22;2845;48.626;9.362;2023-12-20T14:57:14;6.00;97.20
5647;DHT22;2845;48.626;9.362;2023-12-20T14:59:49;5.90;97.10
5647;DHT22;2845;48.626;9.362;2023-12-20T15:02:23;5.90;97.20
5647;DHT22;2845;48.626;9.362;2023-12-20T15:04:58;8.40;97.90
5647;DHT22;2845;48.626;9.362;2023-12-20T15:07:34;5.80;97.10
5647;DHT22;2845;48.626;9.362;2023-12-20T15:10:09;5.90;97.20
5647;DHT22;2845;48.626;9.362;2023-12-20T15:12:43;7.90;97.60
5647;DHT22;2845;48.626;9.362;2023-12-20T15:15:19;5.80;97.20
5647;DHT22;2845;48.626;9.362;2023-12-20T15:17:53;5.80;97.40
5647;DHT22;2845;48.626;9.362;2023-12-20T15:20:28;7.30;97.90
5647;DHT22;2845;48.626;9.362;2023-12-20T15:23:03;5.70;97.40
5647;DHT22;2845;48.626;9.362;2023-12-20T15:25:40;5.70;97.60
5647;DHT22;2845;48.626;9.362;2023-12-20T15:28:14;5.60;97.60
5647;DHT22;2845;48.626;9.362;2023-12-20T15:30:48;5.60;97.80
5647;DHT22;2845;48.626;9.362;2023-12-20T15:33:23;5.60;97.90
5647;DHT22;2845;48.626;9.362;2023-12-20T15:38:32;5.60;97.90
5647;DHT22;2845;48.626;9.362;2023-12-20T15:41:07;5.50;97.80
5647;DHT22;2845;48.626;9.362;2023-12-20T15:43:42;5.60;97.90
5647;DHT22;2845;48.626;9.362;2023-12-20T15:46:16;5.60;98.00
5647;DHT22;2845;48.626;9.362;2023-12-20T15:48:50;5.60;98.00
5647;DHT22;2845;48.626;9.362;2023-12-20T15:51:26;5.50;98.00
5647;DHT22;2845;48.626;9.362;2023-12-20T15:54:01;5.50;98.10
5647;DHT22;2845;48.626;9.362;2023-12-20T15:56:38;5.40;98.10
5647;DHT22;2845;48.626;9.362;2023-12-20T15:59:14;5.40;98.20
5647;DHT22;2845;48.626;9.362;2023-12-20T16:01:48;5.40;98.40
5647;DHT22;2845;48.626;9.362;2023-12-20T16:04:26;5.40;98.50
5647;DHT22;2845;48.626;9.362;2023-12-20T16:09:37;8.10;99.10
5647;DHT22;2845;48.626;9.362;2023-12-20T16:12:11;7.20;99.10
5647;DHT22;2845;48.626;9.362;2023-12-20T16:14:45;5.30;98.70
5647;DHT22;2845;48.626;9.362;2023-12-20T16:17:19;5.30;98.80
5647;DHT22;2845;48.626;9.362;2023-12-20T16:19:54;5.30;98.70
5647;DHT22;2845;48.626;9.362;2023-12-20T16:22:29;5.30;98.50
5647;DHT22;2845;48.626;9.362;2023-12-20T16:25:04;5.30;98.50
5647;DHT22;2845;48.626;9.362;2023-12-20T16:27:39;5.30;98.70
5647;DHT22;2845;48.626;9.362;2023-12-20T16:30:15;5.30;98.50
5647;DHT22;2845;48.626;9.362;2023-12-20T16:32:49;5.30;98.50
5647;DHT22;2845;48.626;9.362;2023-12-20T16:35:24;3.70;98.10
5647;DHT22;2845;48.626;9.362;2023-12-20T16:38:02;5.20;98.60
5647;DHT22;2845;48.626;9.362;2023-12-20T16:40:37;5.30;98.60
5647;DHT22;2845;48.626;9.362;2023-12-20T16:43:11;5.30;98.50
5647;DHT22;2845;48.626;9.362;2023-12-20T16:45:46;6.60;98.90
5647;DHT22;2845;48.626;9.362;2023-12-20T16:48:20;6.30;98.90
5647;DHT22;2845;48.626;9.362;2023-12-20T16:56:06;5.30;98.60
5647;DHT22;2845;48.626;9.362;2023-12-20T16:58:40;5.30;98.60
5647;DHT22;2845;48.626;9.362;2023-12-20T17:01:14;7.40;99.20
5647;DHT22;2845;48.626;9.362;2023-12-20T17:03:49;5.30;98.60
5647;DHT22;2845;48.626;9.362;2023-12-20T17:06:23;5.10;98.60
5647;DHT22;2845;48.626;9.362;2023-12-20T17:09:00;5.30;98.70
5647;DHT22;2845;48.626;9.362;2023-12-20T17:11:34;5.20;98.50
5647;DHT22;2845;48.626;9.362;2023-12-20T17:14:09;5.20;98.60
5647;DHT22;2845;48.626;9.362;2023-12-20T17:16:44;5.20;98.60
5647;DHT22;2845;48.626;9.362;2023-12-20T17:19:19;5.20;98.70
5647;DHT22;2845;48.626;9.362;2023-12-20T17:21:56;5.20;98.90
5647;DHT22;2845;48.626;9.362;2023-12-20T17:24:32;5.10;98.90
5647;DHT22;2845;48.626;9.362;2023-12-20T17:27:06;5.10;99.00
5647;DHT22;2845;48.626;9.362;2023-12-20T17:29:41;5.10;99.00
5647;DHT22;2845;48.626;9.362;2023-12-20T17:32:15;5.60;99.00
5647;DHT22;2845;48.626;9.362;2023-12-20T17:34:49;5.10;99.00
5647;DHT22;2845;48.626;9.362;2023-12-20T17:37:23;5.20;98.90
5647;DHT22;2845;48.626;9.362;2023-12-20T17:39:59;5.20;98.70
5647;DHT22;2845;48.626;9.362;2023-12-20T17:42:33;5.20;98.60
5647;DHT22;2845;48.626;9.362;2023-12-20T17:45:08;5.10;98.70
5647;DHT22;2845;48.626;9.362;2023-12-20T17:47:42;5.10;98.70
5647;DHT22;2845;48.626;9.362;2023-12-20T17:50:17;5.00;98.80